Norwood, MA (02062)

8:47 AM EST on February 01, 2015 (GMT -0500)
East Walpole, MA | Change Station
CLOSE
Current Station
Personal Weather Station
Location: East Walpole, MA
Elevation: 197 ft
Nearby Weather Stations
Active Advisory: Winter Storm Warning

Elev 197 ft 42.15 °N, 71.22 °W | Updated 1 minute ago

Clear
Clear
13.8 °F
Feels Like 14 °F
N
2.0
Wind Variable Wind from SW
Gusts 6.0 mph

Today
High -- | Low -- °F
--% Chance of Precip.
Yesterday
High -- | Low -- °F
Precip. -- in
6:58 AM 4:59 PM
Waxing Gibbous, 95% visible
Pressure 30.15 in
Visibility 10.0 miles
Clouds Clear
Windchill 14 °F
Dew Point 5 °F
Humidity 67%
Rainfall 0.00 in
Snow Depth Not available.
UV 0 out of 12
Pollen .10 out of 12
Air Quality Not available.
Flu Activity Not available.
METAR KOWD 011253Z 00000KT 10SM CLR M17/M20 A3015 RMK AO2 SLP209 T11721200

More Conditions Fewer Conditions

Pressure 30.15 in
Visibility 10.0 miles
Clouds Clear
Windchill 14 °F
Dew Point 5 °F
Humidity 67%
Rainfall 0.00 in
Snow Depth Not available.
UV 0 out of 12
Pollen .10 out of 12
Air Quality Not available.
Flu Activity Not available.
METAR KOWD 011253Z 00000KT 10SM CLR M17/M20 A3015 RMK AO2 SLP209 T11721200

More Conditions Fewer Conditions

10-Day Weather Forecast

Almanac

Astronomy

Feb. 01, 2015 Rise Set
Actual Time
Civil Twilight
Nautical Twilight
Astronomical Twilight
Moon
Length of Visible Light
Length of Day
Tomorrow will be .
, % of the Moon is Illuminated

Today's Extremes

State Highs State Lows

Community

WunderPhotos

Upload Photos

1,792,363 photos uploaded!

WunderBlogs® & News

Nearby

Air Quality

  Air Quality AQ Index Pollutant
Not available.

Snow Depth

Station Depth Elevation

Earthquake Activity

City Distance Mag. Time & Date
Minimum magnitude displayed is 2.5.

Coastal Water Temperatures

Place Temperature

Nearby Weather Stations